sensor_id;sensor_type;location;lat;lon;timestamp;P1;durP1;ratioP1;P2;durP2;ratioP2
10232;SDS011;5161;48.174;11.756;2024-03-06T00:02:22;19.67;;;14.80;;
10232;SDS011;5161;48.174;11.756;2024-03-06T00:04:48;20.37;;;16.03;;
10232;SDS011;5161;48.174;11.756;2024-03-06T00:07:14;19.73;;;14.90;;
10232;SDS011;5161;48.174;11.756;2024-03-06T00:09:39;20.07;;;15.10;;
10232;SDS011;5161;48.174;11.756;2024-03-06T00:12:05;17.63;;;14.33;;
10232;SDS011;5161;48.174;11.756;2024-03-06T00:14:31;20.17;;;15.67;;
10232;SDS011;5161;48.174;11.756;2024-03-06T00:16:56;17.80;;;15.10;;
10232;SDS011;5161;48.174;11.756;2024-03-06T00:19:22;20.07;;;14.57;;
10232;SDS011;5161;48.174;11.756;2024-03-06T00:21:48;20.57;;;15.37;;
10232;SDS011;5161;48.174;11.756;2024-03-06T00:24:14;20.37;;;15.80;;
10232;SDS011;5161;48.174;11.756;2024-03-06T00:26:40;20.00;;;15.20;;
10232;SDS011;5161;48.174;11.756;2024-03-06T00:29:06;19.60;;;14.67;;
10232;SDS011;5161;48.174;11.756;2024-03-06T00:31:32;19.97;;;16.00;;
10232;SDS011;5161;48.174;11.756;2024-03-06T00:33:57;20.63;;;16.07;;
10232;SDS011;5161;48.174;11.756;2024-03-06T00:36:23;20.30;;;15.10;;
10232;SDS011;5161;48.174;11.756;2024-03-06T00:38:49;19.13;;;15.70;;
10232;SDS011;5161;48.174;11.756;2024-03-06T00:41:14;21.07;;;15.90;;
10232;SDS011;5161;48.174;11.756;2024-03-06T00:43:40;20.10;;;15.60;;
10232;SDS011;5161;48.174;11.756;2024-03-06T00:46:05;20.97;;;15.83;;
10232;SDS011;5161;48.174;11.756;2024-03-06T00:48:31;20.73;;;15.73;;
10232;SDS011;5161;48.174;11.756;2024-03-06T00:50:56;18.43;;;14.87;;
10232;SDS011;5161;48.174;11.756;2024-03-06T00:53:22;20.37;;;15.37;;
10232;SDS011;5161;48.174;11.756;2024-03-06T00:55:47;20.07;;;16.77;;
10232;SDS011;5161;48.174;11.756;2024-03-06T00:58:13;19.27;;;15.67;;
10232;SDS011;5161;48.174;11.756;2024-03-06T01:00:38;20.43;;;16.07;;
10232;SDS011;5161;48.174;11.756;2024-03-06T01:03:04;21.47;;;16.37;;
10232;SDS011;5161;48.174;11.756;2024-03-06T01:05:30;22.77;;;16.93;;
10232;SDS011;5161;48.174;11.756;2024-03-06T01:07:56;22.03;;;16.53;;
10232;SDS011;5161;48.174;11.756;2024-03-06T01:10:22;19.93;;;15.90;;
10232;SDS011;5161;48.174;11.756;2024-03-06T01:12:48;20.70;;;16.40;;
10232;SDS011;5161;48.174;11.756;2024-03-06T01:15:14;21.50;;;17.23;;
10232;SDS011;5161;48.174;11.756;2024-03-06T01:17:40;21.33;;;16.73;;
10232;SDS011;5161;48.174;11.756;2024-03-06T01:20:05;21.63;;;16.67;;
10232;SDS011;5161;48.174;11.756;2024-03-06T01:22:32;21.97;;;16.87;;
10232;SDS011;5161;48.174;11.756;2024-03-06T01:25:01;22.80;;;16.70;;
10232;SDS011;5161;48.174;11.756;2024-03-06T01:27:27;21.17;;;16.67;;
10232;SDS011;5161;48.174;11.756;2024-03-06T01:29:52;23.47;;;16.17;;
10232;SDS011;5161;48.174;11.756;2024-03-06T01:32:18;20.27;;;15.90;;
10232;SDS011;5161;48.174;11.756;2024-03-06T01:34:43;22.67;;;17.17;;
10232;SDS011;5161;48.174;11.756;2024-03-06T01:37:09;20.97;;;15.67;;
10232;SDS011;5161;48.174;11.756;2024-03-06T01:39:35;21.73;;;16.27;;
10232;SDS011;5161;48.174;11.756;2024-03-06T01:42:01;21.67;;;16.80;;
10232;SDS011;5161;48.174;11.756;2024-03-06T01:44:27;20.97;;;15.97;;
10232;SDS011;5161;48.174;11.756;2024-03-06T01:46:53;22.50;;;15.90;;
10232;SDS011;5161;48.174;11.756;2024-03-06T01:49:19;20.63;;;15.13;;
10232;SDS011;5161;48.174;11.756;2024-03-06T01:51:48;20.33;;;15.23;;
10232;SDS011;5161;48.174;11.756;2024-03-06T01:54:15;20.83;;;16.30;;
10232;SDS011;5161;48.174;11.756;2024-03-06T01:56:44;19.73;;;15.27;;
10232;SDS011;5161;48.174;11.756;2024-03-06T01:59:11;20.43;;;15.43;;
10232;SDS011;5161;48.174;11.756;2024-03-06T02:01:45;20.90;;;15.83;;
10232;SDS011;5161;48.174;11.756;2024-03-06T02:04:11;20.87;;;15.40;;
10232;SDS011;5161;48.174;11.756;2024-03-06T02:06:42;18.80;;;14.43;;
10232;SDS011;5161;48.174;11.756;2024-03-06T02:09:07;19.87;;;14.80;;
10232;SDS011;5161;48.174;11.756;2024-03-06T02:11:34;19.07;;;15.10;;
10232;SDS011;5161;48.174;11.756;2024-03-06T02:14:01;19.77;;;14.47;;
10232;SDS011;5161;48.174;11.756;2024-03-06T02:16:28;18.73;;;14.60;;
10232;SDS011;5161;48.174;11.756;2024-03-06T02:18:54;18.20;;;13.80;;
10232;SDS011;5161;48.174;11.756;2024-03-06T02:21:20;18.67;;;13.93;;
10232;SDS011;5161;48.174;11.756;2024-03-06T02:23:49;17.87;;;13.40;;
10232;SDS011;5161;48.174;11.756;2024-03-06T02:26:20;19.33;;;14.27;;
10232;SDS011;5161;48.174;11.756;2024-03-06T02:28:50;20.53;;;13.77;;
10232;SDS011;5161;48.174;11.756;2024-03-06T02:31:17;17.73;;;13.20;;
10232;SDS011;5161;48.174;11.756;2024-03-06T02:33:43;19.43;;;13.83;;
10232;SDS011;5161;48.174;11.756;2024-03-06T02:36:10;18.00;;;13.67;;
10232;SDS011;5161;48.174;11.756;2024-03-06T02:38:36;17.50;;;13.30;;
10232;SDS011;5161;48.174;11.756;2024-03-06T02:41:02;19.17;;;14.03;;
10232;SDS011;5161;48.174;11.756;2024-03-06T02:43:28;17.97;;;13.27;;
10232;SDS011;5161;48.174;11.756;2024-03-06T02:45:53;18.93;;;13.97;;
10232;SDS011;5161;48.174;11.756;2024-03-06T02:48:19;19.50;;;13.53;;
10232;SDS011;5161;48.174;11.756;2024-03-06T02:50:44;19.47;;;13.90;;
10232;SDS011;5161;48.174;11.756;2024-03-06T02:53:10;16.70;;;13.27;;
10232;SDS011;5161;48.174;11.756;2024-03-06T02:55:35;18.30;;;13.67;;
10232;SDS011;5161;48.174;11.756;2024-03-06T02:58:01;19.40;;;13.33;;
10232;SDS011;5161;48.174;11.756;2024-03-06T03:00:28;17.47;;;12.67;;
10232;SDS011;5161;48.174;11.756;2024-03-06T03:02:53;17.63;;;13.50;;
10232;SDS011;5161;48.174;11.756;2024-03-06T03:05:19;18.13;;;13.70;;
10232;SDS011;5161;48.174;11.756;2024-03-06T03:07:44;19.27;;;13.67;;
10232;SDS011;5161;48.174;11.756;2024-03-06T03:10:10;18.07;;;13.47;;
10232;SDS011;5161;48.174;11.756;2024-03-06T03:12:37;18.73;;;13.20;;
10232;SDS011;5161;48.174;11.756;2024-03-06T03:15:03;19.50;;;14.00;;
10232;SDS011;5161;48.174;11.756;2024-03-06T03:17:29;18.80;;;13.70;;
10232;SDS011;5161;48.174;11.756;2024-03-06T03:19:55;21.70;;;14.73;;
10232;SDS011;5161;48.174;11.756;2024-03-06T03:22:20;19.10;;;13.93;;
10232;SDS011;5161;48.174;11.756;2024-03-06T03:24:46;18.40;;;13.37;;
10232;SDS011;5161;48.174;11.756;2024-03-06T03:27:12;18.83;;;13.77;;
10232;SDS011;5161;48.174;11.756;2024-03-06T03:29:38;19.77;;;14.23;;
10232;SDS011;5161;48.174;11.756;2024-03-06T03:32:04;11.90;;;10.17;;
10232;SDS011;5161;48.174;11.756;2024-03-06T03:34:30;9.80;;;8.63;;
10232;SDS011;5161;48.174;11.756;2024-03-06T03:36:57;10.73;;;8.57;;
10232;SDS011;5161;48.174;11.756;2024-03-06T03:39:23;12.77;;;8.80;;
10232;SDS011;5161;48.174;11.756;2024-03-06T03:41:49;12.60;;;8.60;;
10232;SDS011;5161;48.174;11.756;2024-03-06T03:44:15;11.70;;;9.37;;
10232;SDS011;5161;48.174;11.756;2024-03-06T03:46:42;13.33;;;9.60;;
10232;SDS011;5161;48.174;11.756;2024-03-06T03:49:08;13.17;;;9.83;;
10232;SDS011;5161;48.174;11.756;2024-03-06T03:51:37;14.87;;;10.90;;
10232;SDS011;5161;48.174;11.756;2024-03-06T03:54:03;14.60;;;11.20;;
10232;SDS011;5161;48.174;11.756;2024-03-06T03:56:29;13.73;;;10.97;;
10232;SDS011;5161;48.174;11.756;2024-03-06T03:58:56;15.60;;;11.77;;
10232;SDS011;5161;48.174;11.756;2024-03-06T04:01:25;17.13;;;12.80;;
10232;SDS011;5161;48.174;11.756;2024-03-06T04:03:50;17.77;;;12.63;;
10232;SDS011;5161;48.174;11.756;2024-03-06T04:06:16;18.17;;;12.60;;
10232;SDS011;5161;48.174;11.756;2024-03-06T04:08:42;18.93;;;13.27;;
10232;SDS011;5161;48.174;11.756;2024-03-06T04:11:08;17.23;;;12.90;;
10232;SDS011;5161;48.174;11.756;2024-03-06T04:13:36;20.63;;;13.50;;
10232;SDS011;5161;48.174;11.756;2024-03-06T04:16:03;18.47;;;13.90;;
10232;SDS011;5161;48.174;11.756;2024-03-06T04:18:29;17.93;;;12.97;;
10232;SDS011;5161;48.174;11.756;2024-03-06T04:21:04;19.13;;;13.43;;
10232;SDS011;5161;48.174;11.756;2024-03-06T04:23:31;9.60;;;8.60;;
10232;SDS011;5161;48.174;11.756;2024-03-06T04:25:57;7.27;;;6.00;;
10232;SDS011;5161;48.174;11.756;2024-03-06T04:28:23;5.90;;;5.30;;
10232;SDS011;5161;48.174;11.756;2024-03-06T04:30:49;5.00;;;4.60;;
10232;SDS011;5161;48.174;11.756;2024-03-06T04:33:14;4.73;;;4.30;;
10232;SDS011;5161;48.174;11.756;2024-03-06T04:35:40;4.67;;;4.27;;
10232;SDS011;5161;48.174;11.756;2024-03-06T04:38:06;4.37;;;4.03;;
10232;SDS011;5161;48.174;11.756;2024-03-06T04:40:33;4.00;;;3.60;;
10232;SDS011;5161;48.174;11.756;2024-03-06T04:42:59;3.80;;;3.50;;
10232;SDS011;5161;48.174;11.756;2024-03-06T04:45:27;4.00;;;3.70;;
10232;SDS011;5161;48.174;11.756;2024-03-06T04:47:56;3.63;;;3.37;;
10232;SDS011;5161;48.174;11.756;2024-03-06T04:50:21;4.03;;;3.63;;
10232;SDS011;5161;48.174;11.756;2024-03-06T04:52:47;3.50;;;3.30;;
10232;SDS011;5161;48.174;11.756;2024-03-06T04:55:12;4.10;;;3.00;;
10232;SDS011;5161;48.174;11.756;2024-03-06T04:57:42;4.83;;;3.07;;
10232;SDS011;5161;48.174;11.756;2024-03-06T05:00:08;3.10;;;2.80;;
10232;SDS011;5161;48.174;11.756;2024-03-06T05:02:35;3.00;;;2.80;;
10232;SDS011;5161;48.174;11.756;2024-03-06T05:05:01;2.70;;;2.60;;
10232;SDS011;5161;48.174;11.756;2024-03-06T05:07:28;2.70;;;2.57;;
10232;SDS011;5161;48.174;11.756;2024-03-06T05:09:54;2.90;;;2.70;;
10232;SDS011;5161;48.174;11.756;2024-03-06T05:12:21;2.90;;;2.70;;
10232;SDS011;5161;48.174;11.756;2024-03-06T05:14:46;2.70;;;2.57;;
10232;SDS011;5161;48.174;11.756;2024-03-06T05:17:12;2.30;;;2.20;;
10232;SDS011;5161;48.174;11.756;2024-03-06T05:19:37;2.53;;;2.43;;
10232;SDS011;5161;48.174;11.756;2024-03-06T05:22:03;2.80;;;2.60;;
10232;SDS011;5161;48.174;11.756;2024-03-06T05:24:29;2.90;;;2.70;;
10232;SDS011;5161;48.174;11.756;2024-03-06T05:26:55;2.77;;;2.60;;
10232;SDS011;5161;48.174;11.756;2024-03-06T05:29:20;3.50;;;2.60;;
10232;SDS011;5161;48.174;11.756;2024-03-06T05:31:46;2.77;;;2.57;;
10232;SDS011;5161;48.174;11.756;2024-03-06T05:34:11;2.77;;;2.60;;
10232;SDS011;5161;48.174;11.756;2024-03-06T05:36:37;3.17;;;2.97;;
10232;SDS011;5161;48.174;11.756;2024-03-06T05:39:02;3.60;;;3.30;;
10232;SDS011;5161;48.174;11.756;2024-03-06T05:41:32;3.50;;;3.20;;
10232;SDS011;5161;48.174;11.756;2024-03-06T05:43:58;3.20;;;3.00;;
10232;SDS011;5161;48.174;11.756;2024-03-06T05:46:23;3.47;;;3.20;;
10232;SDS011;5161;48.174;11.756;2024-03-06T05:48:49;3.30;;;3.10;;
10232;SDS011;5161;48.174;11.756;2024-03-06T05:51:16;3.30;;;3.10;;
10232;SDS011;5161;48.174;11.756;2024-03-06T05:53:42;3.93;;;3.40;;
10232;SDS011;5161;48.174;11.756;2024-03-06T05:56:08;3.27;;;3.07;;
10232;SDS011;5161;48.174;11.756;2024-03-06T05:58:34;3.47;;;3.20;;
10232;SDS011;5161;48.174;11.756;2024-03-06T06:01:00;3.07;;;2.87;;
10232;SDS011;5161;48.174;11.756;2024-03-06T06:03:26;2.93;;;2.70;;
10232;SDS011;5161;48.174;11.756;2024-03-06T06:05:53;3.40;;;3.10;;
10232;SDS011;5161;48.174;11.756;2024-03-06T06:08:19;2.93;;;2.73;;
10232;SDS011;5161;48.174;11.756;2024-03-06T06:10:44;3.33;;;3.13;;
10232;SDS011;5161;48.174;11.756;2024-03-06T06:13:10;3.10;;;2.90;;
10232;SDS011;5161;48.174;11.756;2024-03-06T06:15:35;3.00;;;2.80;;
10232;SDS011;5161;48.174;11.756;2024-03-06T06:18:01;3.30;;;3.10;;
10232;SDS011;5161;48.174;11.756;2024-03-06T06:20:27;3.10;;;2.90;;
10232;SDS011;5161;48.174;11.756;2024-03-06T06:22:52;3.20;;;3.00;;
10232;SDS011;5161;48.174;11.756;2024-03-06T06:25:18;5.13;;;3.70;;
10232;SDS011;5161;48.174;11.756;2024-03-06T06:27:44;4.10;;;3.53;;
10232;SDS011;5161;48.174;11.756;2024-03-06T06:30:09;4.43;;;3.40;;
10232;SDS011;5161;48.174;11.756;2024-03-06T06:32:36;3.67;;;3.40;;
10232;SDS011;5161;48.174;11.756;2024-03-06T06:35:03;3.70;;;3.40;;
10232;SDS011;5161;48.174;11.756;2024-03-06T06:37:29;4.70;;;3.40;;
10232;SDS011;5161;48.174;11.756;2024-03-06T06:39:55;4.53;;;3.50;;
10232;SDS011;5161;48.174;11.756;2024-03-06T06:42:21;3.90;;;3.60;;
10232;SDS011;5161;48.174;11.756;2024-03-06T06:44:47;4.03;;;3.63;;
10232;SDS011;5161;48.174;11.756;2024-03-06T06:47:12;4.10;;;3.60;;
10232;SDS011;5161;48.174;11.756;2024-03-06T06:49:38;4.17;;;3.77;;
10232;SDS011;5161;48.174;11.756;2024-03-06T06:52:03;6.70;;;4.03;;
10232;SDS011;5161;48.174;11.756;2024-03-06T06:54:29;6.43;;;4.07;;
10232;SDS011;5161;48.174;11.756;2024-03-06T06:56:54;4.10;;;3.70;;
10232;SDS011;5161;48.174;11.756;2024-03-06T06:59:20;5.27;;;3.87;;
10232;SDS011;5161;48.174;11.756;2024-03-06T07:01:47;5.00;;;3.97;;
10232;SDS011;5161;48.174;11.756;2024-03-06T07:04:13;7.07;;;4.23;;
10232;SDS011;5161;48.174;11.756;2024-03-06T07:06:41;4.00;;;3.63;;
10232;SDS011;5161;48.174;11.756;2024-03-06T07:09:07;4.27;;;3.60;;
10232;SDS011;5161;48.174;11.756;2024-03-06T07:11:34;6.47;;;3.93;;
10232;SDS011;5161;48.174;11.756;2024-03-06T07:14:00;7.10;;;4.00;;
10232;SDS011;5161;48.174;11.756;2024-03-06T07:16:25;4.97;;;3.83;;
10232;SDS011;5161;48.174;11.756;2024-03-06T07:18:51;4.70;;;4.07;;
10232;SDS011;5161;48.174;11.756;2024-03-06T07:21:16;5.33;;;3.97;;
10232;SDS011;5161;48.174;11.756;2024-03-06T07:23:45;3.83;;;3.60;;
10232;SDS011;5161;48.174;11.756;2024-03-06T07:26:10;4.00;;;3.70;;
10232;SDS011;5161;48.174;11.756;2024-03-06T07:28:36;4.50;;;4.03;;
10232;SDS011;5161;48.174;11.756;2024-03-06T07:31:02;4.20;;;3.90;;
10232;SDS011;5161;48.174;11.756;2024-03-06T07:33:28;6.20;;;4.43;;
10232;SDS011;5161;48.174;11.756;2024-03-06T07:35:55;5.20;;;4.17;;
10232;SDS011;5161;48.174;11.756;2024-03-06T07:38:21;4.33;;;3.90;;
10232;SDS011;5161;48.174;11.756;2024-03-06T07:40:48;4.33;;;3.93;;
10232;SDS011;5161;48.174;11.756;2024-03-06T07:43:13;4.77;;;4.03;;
10232;SDS011;5161;48.174;11.756;2024-03-06T07:45:39;4.13;;;3.83;;
10232;SDS011;5161;48.174;11.756;2024-03-06T07:48:05;4.73;;;3.97;;
10232;SDS011;5161;48.174;11.756;2024-03-06T07:50:30;4.30;;;4.00;;
10232;SDS011;5161;48.174;11.756;2024-03-06T07:52:56;4.40;;;4.00;;
10232;SDS011;5161;48.174;11.756;2024-03-06T07:55:22;4.17;;;3.80;;
10232;SDS011;5161;48.174;11.756;2024-03-06T07:57:48;4.10;;;3.80;;
10232;SDS011;5161;48.174;11.756;2024-03-06T08:00:13;4.47;;;4.07;;
10232;SDS011;5161;48.174;11.756;2024-03-06T08:02:42;4.50;;;4.10;;
10232;SDS011;5161;48.174;11.756;2024-03-06T08:05:09;4.97;;;4.10;;
10232;SDS011;5161;48.174;11.756;2024-03-06T08:07:37;4.87;;;4.10;;
10232;SDS011;5161;48.174;11.756;2024-03-06T08:10:09;4.50;;;4.10;;
10232;SDS011;5161;48.174;11.756;2024-03-06T08:12:41;4.00;;;3.70;;
10232;SDS011;5161;48.174;11.756;2024-03-06T08:15:09;4.97;;;3.67;;
10232;SDS011;5161;48.174;11.756;2024-03-06T08:17:38;5.00;;;3.83;;
10232;SDS011;5161;48.174;11.756;2024-03-06T08:20:06;4.20;;;3.90;;
10232;SDS011;5161;48.174;11.756;2024-03-06T08:22:37;4.27;;;3.87;;
10232;SDS011;5161;48.174;11.756;2024-03-06T08:25:07;5.07;;;3.93;;
10232;SDS011;5161;48.174;11.756;2024-03-06T08:27:34;3.90;;;3.60;;
10232;SDS011;5161;48.174;11.756;2024-03-06T08:30:01;4.10;;;3.70;;
10232;SDS011;5161;48.174;11.756;2024-03-06T08:32:31;4.30;;;3.87;;
10232;SDS011;5161;48.174;11.756;2024-03-06T08:35:08;4.70;;;4.30;;
10232;SDS011;5161;48.174;11.756;2024-03-06T08:37:38;7.80;;;4.10;;
10232;SDS011;5161;48.174;11.756;2024-03-06T08:40:04;3.83;;;3.57;;
10232;SDS011;5161;48.174;11.756;2024-03-06T08:42:32;4.53;;;3.90;;
10232;SDS011;5161;48.174;11.756;2024-03-06T08:44:58;4.97;;;4.47;;
10232;SDS011;5161;48.174;11.756;2024-03-06T08:47:24;4.07;;;3.77;;
10232;SDS011;5161;48.174;11.756;2024-03-06T08:49:49;4.83;;;4.33;;
10232;SDS011;5161;48.174;11.756;2024-03-06T08:52:15;5.70;;;4.20;;
10232;SDS011;5161;48.174;11.756;2024-03-06T08:54:41;4.30;;;4.00;;
10232;SDS011;5161;48.174;11.756;2024-03-06T08:57:06;4.40;;;4.03;;
10232;SDS011;5161;48.174;11.756;2024-03-06T08:59:33;4.00;;;3.70;;
10232;SDS011;5161;48.174;11.756;2024-03-06T09:02:11;4.50;;;4.10;;
10232;SDS011;5161;48.174;11.756;2024-03-06T09:04:41;5.00;;;4.30;;
10232;SDS011;5161;48.174;11.756;2024-03-06T09:07:07;4.57;;;4.00;;
10232;SDS011;5161;48.174;11.756;2024-03-06T09:09:33;4.60;;;4.20;;
10232;SDS011;5161;48.174;11.756;2024-03-06T09:12:05;4.60;;;4.20;;
10232;SDS011;5161;48.174;11.756;2024-03-06T09:14:32;4.67;;;4.27;;
10232;SDS011;5161;48.174;11.756;2024-03-06T09:16:58;5.83;;;4.17;;
10232;SDS011;5161;48.174;11.756;2024-03-06T09:19:24;4.57;;;4.17;;
10232;SDS011;5161;48.174;11.756;2024-03-06T09:21:49;4.57;;;4.17;;
10232;SDS011;5161;48.174;11.756;2024-03-06T09:24:15;6.97;;;5.00;;
10232;SDS011;5161;48.174;11.756;2024-03-06T09:26:40;4.77;;;4.33;;
10232;SDS011;5161;48.174;11.756;2024-03-06T09:29:06;4.63;;;4.13;;
10232;SDS011;5161;48.174;11.756;2024-03-06T09:31:32;4.60;;;4.20;;
10232;SDS011;5161;48.174;11.756;2024-03-06T09:33:57;4.60;;;4.20;;
10232;SDS011;5161;48.174;11.756;2024-03-06T09:36:23;4.73;;;4.30;;
10232;SDS011;5161;48.174;11.756;2024-03-06T09:38:50;4.40;;;4.00;;
10232;SDS011;5161;48.174;11.756;2024-03-06T09:41:16;5.17;;;4.47;;
10232;SDS011;5161;48.174;11.756;2024-03-06T09:43:43;4.63;;;4.23;;
10232;SDS011;5161;48.174;11.756;2024-03-06T09:46:09;4.67;;;4.30;;
10232;SDS011;5161;48.174;11.756;2024-03-06T09:48:35;5.50;;;4.23;;
10232;SDS011;5161;48.174;11.756;2024-03-06T09:51:01;5.10;;;4.07;;
10232;SDS011;5161;48.174;11.756;2024-03-06T09:53:27;5.43;;;4.83;;
10232;SDS011;5161;48.174;11.756;2024-03-06T09:55:54;7.60;;;5.17;;
10232;SDS011;5161;48.174;11.756;2024-03-06T09:58:22;5.10;;;4.60;;
10232;SDS011;5161;48.174;11.756;2024-03-06T10:00:49;4.63;;;4.23;;
10232;SDS011;5161;48.174;11.756;2024-03-06T10:03:16;6.23;;;4.83;;
10232;SDS011;5161;48.174;11.756;2024-03-06T10:05:42;5.80;;;5.23;;
10232;SDS011;5161;48.174;11.756;2024-03-06T10:08:08;6.80;;;5.53;;
10232;SDS011;5161;48.174;11.756;2024-03-06T10:10:35;6.73;;;5.10;;
10232;SDS011;5161;48.174;11.756;2024-03-06T11:23:29;10.77;;;7.73;;
10232;SDS011;5161;48.174;11.756;2024-03-06T11:25:56;10.23;;;8.50;;
10232;SDS011;5161;48.174;11.756;2024-03-06T11:28:27;11.17;;;9.00;;
10232;SDS011;5161;48.174;11.756;2024-03-06T11:33:34;13.10;;;9.63;;
10232;SDS011;5161;48.174;11.756;2024-03-06T11:36:15;13.90;;;9.63;;
10232;SDS011;5161;48.174;11.756;2024-03-06T11:38:53;13.50;;;9.83;;
10232;SDS011;5161;48.174;11.756;2024-03-06T11:41:22;14.20;;;11.50;;
10232;SDS011;5161;48.174;11.756;2024-03-06T11:43:50;16.47;;;11.60;;
10232;SDS011;5161;48.174;11.756;2024-03-06T11:46:18;15.40;;;11.60;;
10232;SDS011;5161;48.174;11.756;2024-03-06T11:48:51;15.33;;;11.97;;
10232;SDS011;5161;48.174;11.756;2024-03-06T11:51:18;13.37;;;10.73;;
10232;SDS011;5161;48.174;11.756;2024-03-06T11:53:43;13.30;;;10.40;;
10232;SDS011;5161;48.174;11.756;2024-03-06T11:56:10;14.87;;;10.93;;
10232;SDS011;5161;48.174;11.756;2024-03-06T11:58:36;14.23;;;10.93;;
10232;SDS011;5161;48.174;11.756;2024-03-06T12:01:02;14.73;;;10.70;;
10232;SDS011;5161;48.174;11.756;2024-03-06T12:03:29;17.67;;;11.60;;
10232;SDS011;5161;48.174;11.756;2024-03-06T12:05:55;17.50;;;13.17;;
10232;SDS011;5161;48.174;11.756;2024-03-06T12:08:21;18.97;;;13.80;;
10232;SDS011;5161;48.174;11.756;2024-03-06T12:10:46;20.10;;;13.70;;
10232;SDS011;5161;48.174;11.756;2024-03-06T12:13:12;18.97;;;13.97;;
10232;SDS011;5161;48.174;11.756;2024-03-06T12:15:41;17.23;;;12.30;;
10232;SDS011;5161;48.174;11.756;2024-03-06T12:18:08;16.53;;;12.17;;
10232;SDS011;5161;48.174;11.756;2024-03-06T12:20:33;17.17;;;11.90;;
10232;SDS011;5161;48.174;11.756;2024-03-06T12:22:59;16.03;;;12.17;;
10232;SDS011;5161;48.174;11.756;2024-03-06T12:25:25;15.63;;;12.00;;
10232;SDS011;5161;48.174;11.756;2024-03-06T12:27:52;12.90;;;10.43;;
10232;SDS011;5161;48.174;11.756;2024-03-06T12:30:19;13.67;;;10.53;;
10232;SDS011;5161;48.174;11.756;2024-03-06T12:32:59;16.83;;;10.30;;
10232;SDS011;5161;48.174;11.756;2024-03-06T12:35:29;16.93;;;10.37;;
10232;SDS011;5161;48.174;11.756;2024-03-06T12:37:55;14.43;;;10.80;;
10232;SDS011;5161;48.174;11.756;2024-03-06T12:40:20;17.23;;;11.77;;
10232;SDS011;5161;48.174;11.756;2024-03-06T12:42:46;28.53;;;18.73;;
10232;SDS011;5161;48.174;11.756;2024-03-06T12:45:12;35.37;;;24.10;;
10232;SDS011;5161;48.174;11.756;2024-03-06T12:47:45;37.70;;;23.43;;
10232;SDS011;5161;48.174;11.756;2024-03-06T12:50:13;36.03;;;24.20;;
10232;SDS011;5161;48.174;11.756;2024-03-06T12:52:39;37.90;;;24.97;;
10232;SDS011;5161;48.174;11.756;2024-03-06T12:55:05;40.40;;;24.80;;
10232;SDS011;5161;48.174;11.756;2024-03-06T12:57:32;36.03;;;23.77;;
10232;SDS011;5161;48.174;11.756;2024-03-06T13:00:01;38.83;;;24.23;;
10232;SDS011;5161;48.174;11.756;2024-03-06T13:02:27;42.30;;;25.37;;
10232;SDS011;5161;48.174;11.756;2024-03-06T13:04:53;35.37;;;23.30;;
10232;SDS011;5161;48.174;11.756;2024-03-06T13:07:18;34.90;;;24.27;;
10232;SDS011;5161;48.174;11.756;2024-03-06T13:09:44;39.60;;;24.60;;
10232;SDS011;5161;48.174;11.756;2024-03-06T13:12:10;37.43;;;24.67;;
10232;SDS011;5161;48.174;11.756;2024-03-06T13:14:36;28.77;;;19.00;;
10232;SDS011;5161;48.174;11.756;2024-03-06T13:17:02;26.17;;;18.23;;
10232;SDS011;5161;48.174;11.756;2024-03-06T13:19:28;27.60;;;17.97;;
10232;SDS011;5161;48.174;11.756;2024-03-06T13:21:53;20.97;;;15.10;;
10232;SDS011;5161;48.174;11.756;2024-03-06T13:24:19;18.80;;;13.90;;
10232;SDS011;5161;48.174;11.756;2024-03-06T13:26:45;18.87;;;13.47;;
10232;SDS011;5161;48.174;11.756;2024-03-06T13:29:12;18.83;;;12.20;;
10232;SDS011;5161;48.174;11.756;2024-03-06T13:31:38;17.30;;;11.90;;
10232;SDS011;5161;48.174;11.756;2024-03-06T13:34:04;18.07;;;10.67;;
10232;SDS011;5161;48.174;11.756;2024-03-06T13:36:29;14.50;;;10.57;;
10232;SDS011;5161;48.174;11.756;2024-03-06T13:38:55;15.53;;;10.80;;
10232;SDS011;5161;48.174;11.756;2024-03-06T13:41:21;16.07;;;10.60;;
10232;SDS011;5161;48.174;11.756;2024-03-06T13:43:48;17.27;;;10.63;;
10232;SDS011;5161;48.174;11.756;2024-03-06T13:46:13;14.80;;;10.47;;
10232;SDS011;5161;48.174;11.756;2024-03-06T13:48:39;17.87;;;11.23;;
10232;SDS011;5161;48.174;11.756;2024-03-06T13:51:05;16.27;;;9.73;;
10232;SDS011;5161;48.174;11.756;2024-03-06T13:53:31;14.20;;;10.30;;
10232;SDS011;5161;48.174;11.756;2024-03-06T13:55:57;16.10;;;10.20;;
10232;SDS011;5161;48.174;11.756;2024-03-06T13:58:22;13.97;;;10.53;;
10232;SDS011;5161;48.174;11.756;2024-03-06T14:00:48;17.93;;;9.73;;
10232;SDS011;5161;48.174;11.756;2024-03-06T14:03:14;12.90;;;9.07;;
10232;SDS011;5161;48.174;11.756;2024-03-06T14:05:39;11.13;;;8.83;;
10232;SDS011;5161;48.174;11.756;2024-03-06T14:08:05;11.53;;;8.70;;
10232;SDS011;5161;48.174;11.756;2024-03-06T14:10:31;12.57;;;8.17;;
10232;SDS011;5161;48.174;11.756;2024-03-06T14:13:00;12.83;;;8.67;;
10232;SDS011;5161;48.174;11.756;2024-03-06T14:15:26;9.73;;;8.00;;
10232;SDS011;5161;48.174;11.756;2024-03-06T14:17:52;9.10;;;7.53;;
10232;SDS011;5161;48.174;11.756;2024-03-06T14:20:22;11.73;;;8.23;;
10232;SDS011;5161;48.174;11.756;2024-03-06T14:22:48;10.53;;;7.50;;
10232;SDS011;5161;48.174;11.756;2024-03-06T14:25:14;9.43;;;7.70;;
10232;SDS011;5161;48.174;11.756;2024-03-06T14:27:40;9.93;;;7.90;;
10232;SDS011;5161;48.174;11.756;2024-03-06T14:30:06;8.30;;;7.13;;
10232;SDS011;5161;48.174;11.756;2024-03-06T14:32:32;14.50;;;7.53;;
10232;SDS011;5161;48.174;11.756;2024-03-06T14:34:59;8.93;;;6.70;;
10232;SDS011;5161;48.174;11.756;2024-03-06T14:37:24;7.97;;;6.50;;
10232;SDS011;5161;48.174;11.756;2024-03-06T14:39:50;9.23;;;7.77;;
10232;SDS011;5161;48.174;11.756;2024-03-06T14:42:18;8.50;;;6.60;;
10232;SDS011;5161;48.174;11.756;2024-03-06T14:44:44;6.70;;;5.43;;
10232;SDS011;5161;48.174;11.756;2024-03-06T14:47:10;6.30;;;5.00;;
10232;SDS011;5161;48.174;11.756;2024-03-06T14:49:35;6.80;;;6.10;;
10232;SDS011;5161;48.174;11.756;2024-03-06T14:52:01;6.83;;;6.13;;
10232;SDS011;5161;48.174;11.756;2024-03-06T14:54:30;7.70;;;6.67;;
10232;SDS011;5161;48.174;11.756;2024-03-06T14:56:55;6.80;;;6.10;;
10232;SDS011;5161;48.174;11.756;2024-03-06T14:59:21;5.97;;;5.37;;
10232;SDS011;5161;48.174;11.756;2024-03-06T15:01:46;5.50;;;4.93;;
10232;SDS011;5161;48.174;11.756;2024-03-06T15:04:13;5.77;;;5.00;;
10232;SDS011;5161;48.174;11.756;2024-03-06T15:06:38;5.83;;;5.23;;
10232;SDS011;5161;48.174;11.756;2024-03-06T15:09:04;5.57;;;5.07;;
10232;SDS011;5161;48.174;11.756;2024-03-06T15:11:30;5.60;;;5.10;;
10232;SDS011;5161;48.174;11.756;2024-03-06T15:13:58;5.60;;;5.10;;
10232;SDS011;5161;48.174;11.756;2024-03-06T15:16:24;6.40;;;5.50;;
10232;SDS011;5161;48.174;11.756;2024-03-06T15:18:49;8.07;;;5.90;;
10232;SDS011;5161;48.174;11.756;2024-03-06T15:21:17;6.53;;;5.80;;
10232;SDS011;5161;48.174;11.756;2024-03-06T15:23:43;7.33;;;6.23;;
10232;SDS011;5161;48.174;11.756;2024-03-06T15:26:08;8.50;;;5.90;;
10232;SDS011;5161;48.174;11.756;2024-03-06T15:28:36;6.37;;;5.77;;
10232;SDS011;5161;48.174;11.756;2024-03-06T15:31:01;7.77;;;5.97;;
10232;SDS011;5161;48.174;11.756;2024-03-06T15:33:29;6.37;;;5.70;;
10232;SDS011;5161;48.174;11.756;2024-03-06T15:35:57;6.33;;;5.73;;
10232;SDS011;5161;48.174;11.756;2024-03-06T15:38:24;7.87;;;6.33;;
10232;SDS011;5161;48.174;11.756;2024-03-06T15:40:51;6.40;;;5.80;;
10232;SDS011;5161;48.174;11.756;2024-03-06T15:43:17;6.13;;;5.53;;
10232;SDS011;5161;48.174;11.756;2024-03-06T15:45:43;6.10;;;5.50;;